Terminal Aerodrome Forecast
Issued by NWS

Home | Current Version | Previous Version | Text Only | Print | Product List | Glossary On
Versions: 1 2 3 4 5 6 7 8 9 10 11 12 13 14 15 16 17 18 19 20 21 22 23 24 25
000
FTUS45 KPSR 251400 AAA
TAFPHX
TAF AMD
KPHX 251453Z 2515/2612 11007KT P6SM SCT200
     FM252100 26005KT P6SM SCT100 BKN200
     FM260600 10006KT P6SM FEW100 SCT200=

USA.gov is the U.S. government's official web portal to all federal, state and local government web resources and services.